THY301 LTAC-LTBA
Flight info
| Callsign | THY301 |
|---|---|
| Flight time | N/A |
| Altitude | 28000 |
| Route | PETAR1D/21R PETAR UG8 TOKER |
| Aircraft | A320/M-SDE3FGHIRWY/LB1 |
Departure
| Time | 2026-04-30 14:32 |
|---|---|
| Airport | Esenboğa International Airport (LTAC) |
Arrival
| Time | N/A |
|---|---|
| Airport | İstanbul Atatürk Airport (LTBA) |
| Time | Latitude | Longitude | Altitude | Speed | Heading |
|---|---|---|---|---|---|
| 2026-04-30 13:33 | 40.11382 | 32.98859 | 3136 ft | 0 kts | 126° |
| 2026-04-30 14:19 | 40.11390 | 32.98845 | 3136 ft | 3 kts | 126° |
| 2026-04-30 14:19 | 40.11401 | 32.98825 | 3136 ft | 3 kts | 126° |
| 2026-04-30 14:20 | 40.11412 | 32.98805 | 3136 ft | 3 kts | 126° |
| 2026-04-30 14:20 | 40.11424 | 32.98783 | 3136 ft | 3 kts | 126° |
| 2026-04-30 14:20 | 40.11449 | 32.98740 | 3136 ft | 2 kts | 126° |
| 2026-04-30 14:21 | 40.11440 | 32.98757 | 3136 ft | 11 kts | 118° |
| 2026-04-30 14:21 | 40.11443 | 32.98796 | 3136 ft | 0 kts | 42° |
| 2026-04-30 14:21 | 40.11443 | 32.98797 | 3136 ft | 0 kts | 42° |
| 2026-04-30 14:25 | 40.11446 | 32.98799 | 3136 ft | 2 kts | 40° |
| 2026-04-30 14:25 | 40.11512 | 32.98870 | 3136 ft | 13 kts | 38° |
| 2026-04-30 14:26 | 40.11554 | 32.98882 | 3136 ft | 6 kts | 338° |
| 2026-04-30 14:26 | 40.11585 | 32.98877 | 3136 ft | 7 kts | 8° |
| 2026-04-30 14:26 | 40.11685 | 32.98889 | 3136 ft | 26 kts | 34° |
| 2026-04-30 14:27 | 40.12004 | 32.99195 | 3136 ft | 73 kts | 36° |
| 2026-04-30 14:27 | 40.12394 | 32.99565 | 3136 ft | 65 kts | 36° |
| 2026-04-30 14:27 | 40.12582 | 32.99744 | 3136 ft | 62 kts | 35° |
| 2026-04-30 14:28 | 40.12777 | 32.99926 | 3136 ft | 49 kts | 37° |
| 2026-04-30 14:28 | 40.13145 | 33.00283 | 3136 ft | 95 kts | 36° |
| 2026-04-30 14:29 | 40.13934 | 33.01035 | 3136 ft | 44 kts | 34° |
| 2026-04-30 14:29 | 40.14082 | 33.01034 | 3136 ft | 0 kts | 308° |
| 2026-04-30 14:31 | 40.14223 | 33.00710 | 3136 ft | 12 kts | 269° |
| 2026-04-30 14:31 | 40.14183 | 33.00659 | 3136 ft | 2 kts | 217° |
| 2026-04-30 14:31 | 40.13976 | 33.00456 | 3137 ft | 73 kts | 216° |
| 2026-04-30 14:32 | 40.12473 | 32.99034 | 3173 ft | 181 kts | 216° |
| 2026-04-30 14:32 | 40.11401 | 32.97978 | 3385 ft | 212 kts | 217° |
| 2026-04-30 14:32 | 40.10136 | 32.96732 | 3863 ft | 241 kts | 217° |
| 2026-04-30 14:33 | 40.08723 | 32.95355 | 4481 ft | 263 kts | 216° |
| 2026-04-30 14:33 | 40.05720 | 32.92560 | 5215 ft | 264 kts | 215° |
| 2026-04-30 14:33 | 40.04212 | 32.91165 | 5592 ft | 264 kts | 215° |
| 2026-04-30 14:34 | 40.02728 | 32.89787 | 5963 ft | 265 kts | 216° |
| 2026-04-30 14:34 | 40.01213 | 32.88373 | 6339 ft | 266 kts | 217° |
| 2026-04-30 14:34 | 39.99828 | 32.87079 | 6701 ft | 266 kts | 219° |
| 2026-04-30 14:34 | 39.98417 | 32.85754 | 7111 ft | 262 kts | 219° |
| 2026-04-30 14:35 | 39.96433 | 32.82935 | 7811 ft | 257 kts | 250° |
| 2026-04-30 14:35 | 39.96347 | 32.79810 | 8465 ft | 261 kts | 277° |
| 2026-04-30 14:35 | 39.96782 | 32.77532 | 8919 ft | 262 kts | 285° |
| 2026-04-30 14:36 | 39.97390 | 32.75295 | 9370 ft | 262 kts | 289° |
| 2026-04-30 14:36 | 39.98062 | 32.73099 | 9818 ft | 261 kts | 290° |
| 2026-04-30 14:36 | 39.98756 | 32.70898 | 10269 ft | 262 kts | 290° |
| 2026-04-30 14:36 | 39.99447 | 32.68695 | 10720 ft | 263 kts | 290° |
| 2026-04-30 14:37 | 40.00067 | 32.66684 | 11130 ft | 264 kts | 290° |
| 2026-04-30 14:37 | 40.00733 | 32.64471 | 11577 ft | 265 kts | 289° |
| 2026-04-30 14:37 | 40.01492 | 32.62281 | 12002 ft | 270 kts | 299° |
| 2026-04-30 14:37 | 40.02883 | 32.60614 | 12467 ft | 278 kts | 321° |
| 2026-04-30 14:38 | 40.04603 | 32.59369 | 12940 ft | 285 kts | 329° |
| 2026-04-30 14:38 | 40.06397 | 32.58274 | 13392 ft | 287 kts | 332° |
| 2026-04-30 14:38 | 40.08139 | 32.57287 | 13816 ft | 289 kts | 334° |
| 2026-04-30 14:38 | 40.10113 | 32.56736 | 14260 ft | 296 kts | 348° |
| 2026-04-30 14:39 | 40.11396 | 32.56623 | 14548 ft | 299 kts | 353° |
| 2026-04-30 14:39 | 40.13171 | 32.56525 | 14934 ft | 299 kts | 351° |
| 2026-04-30 14:39 | 40.15034 | 32.56181 | 15345 ft | 299 kts | 346° |
| 2026-04-30 14:40 | 40.18798 | 32.54291 | 16227 ft | 292 kts | 318° |
| 2026-04-30 14:40 | 40.20097 | 32.52296 | 16669 ft | 291 kts | 297° |
| 2026-04-30 14:40 | 40.20555 | 32.49748 | 17117 ft | 292 kts | 270° |
| 2026-04-30 14:40 | 40.20201 | 32.47312 | 17567 ft | 295 kts | 255° |
| 2026-04-30 14:41 | 40.19526 | 32.44917 | 18009 ft | 298 kts | 250° |
| 2026-04-30 14:41 | 40.18905 | 32.42335 | 18442 ft | 297 kts | 262° |
| 2026-04-30 14:41 | 40.18983 | 32.39627 | 18914 ft | 298 kts | 274° |
| 2026-04-30 14:41 | 40.19053 | 32.36922 | 19371 ft | 300 kts | 270° |
| 2026-04-30 14:42 | 40.19045 | 32.34201 | 19822 ft | 301 kts | 269° |
| 2026-04-30 14:42 | 40.19009 | 32.31427 | 20277 ft | 302 kts | 269° |
| 2026-04-30 14:42 | 40.18963 | 32.28691 | 20725 ft | 302 kts | 269° |
| 2026-04-30 14:42 | 40.18913 | 32.25931 | 21176 ft | 302 kts | 269° |
| 2026-04-30 14:43 | 40.18904 | 32.25458 | 20911 ft | 15 kts | 269° |
| 2026-04-30 14:43 | 40.18898 | 32.25112 | 17224 ft | 106 kts | 269° |
| 2026-04-30 14:43 | 40.18893 | 32.24843 | 15818 ft | 165 kts | 269° |
| 2026-04-30 14:43 | 40.18836 | 32.23969 | 13623 ft | 283 kts | 258° |
| 2026-04-30 14:44 | 40.18272 | 32.21243 | 11723 ft | 330 kts | 256° |
| 2026-04-30 14:44 | 40.17857 | 32.19269 | 11787 ft | 320 kts | 255° |
| 2026-04-30 14:45 | 40.17393 | 32.16922 | 12414 ft | 302 kts | 255° |
| 2026-04-30 14:45 | 40.16867 | 32.14300 | 12850 ft | 291 kts | 259° |
| 2026-04-30 14:45 | 40.16579 | 32.11713 | 13293 ft | 283 kts | 265° |
| 2026-04-30 14:45 | 40.16604 | 32.09182 | 13736 ft | 276 kts | 274° |
| 2026-04-30 14:46 | 40.16823 | 32.06747 | 14178 ft | 273 kts | 277° |
| 2026-04-30 14:46 | 40.17120 | 32.04179 | 14651 ft | 291 kts | 278° |
| 2026-04-30 14:46 | 40.17425 | 32.01513 | 15196 ft | 306 kts | 277° |
| 2026-04-30 14:46 | 40.17721 | 31.98685 | 15785 ft | 320 kts | 277° |
| 2026-04-30 14:47 | 40.18001 | 31.95718 | 16375 ft | 330 kts | 276° |
| 2026-04-30 14:47 | 40.18260 | 31.92746 | 16948 ft | 337 kts | 276° |
| 2026-04-30 14:47 | 40.18555 | 31.89652 | 17533 ft | 342 kts | 277° |
| 2026-04-30 14:47 | 40.18875 | 31.86560 | 18110 ft | 345 kts | 277° |
| 2026-04-30 14:48 | 40.19215 | 31.83430 | 18689 ft | 348 kts | 277° |
| 2026-04-30 14:48 | 40.19566 | 31.80304 | 19262 ft | 351 kts | 278° |
| 2026-04-30 14:48 | 40.19927 | 31.77136 | 19838 ft | 354 kts | 278° |
| 2026-04-30 14:48 | 40.20298 | 31.73928 | 20416 ft | 357 kts | 278° |
| 2026-04-30 14:49 | 40.20674 | 31.70688 | 20996 ft | 360 kts | 278° |
| 2026-04-30 14:49 | 40.21050 | 31.67467 | 21567 ft | 363 kts | 278° |
| 2026-04-30 14:49 | 40.21436 | 31.64165 | 22147 ft | 367 kts | 278° |
| 2026-04-30 14:49 | 40.21825 | 31.60840 | 22726 ft | 370 kts | 278° |
| 2026-04-30 14:50 | 40.22607 | 31.54152 | 23875 ft | 377 kts | 278° |
| 2026-04-30 14:50 | 40.23009 | 31.50707 | 24458 ft | 380 kts | 278° |
| 2026-04-30 14:51 | 40.23807 | 31.43847 | 25604 ft | 387 kts | 278° |
| 2026-04-30 14:51 | 40.24215 | 31.40328 | 26184 ft | 391 kts | 278° |
| 2026-04-30 14:51 | 40.25034 | 31.33228 | 27336 ft | 398 kts | 278° |
| 2026-04-30 14:52 | 40.25452 | 31.29598 | 27917 ft | 402 kts | 278° |
| 2026-04-30 14:52 | 40.26250 | 31.22627 | 29018 ft | 409 kts | 278° |
| 2026-04-30 14:52 | 40.26678 | 31.18875 | 29603 ft | 412 kts | 278° |
| 2026-04-30 14:53 | 40.27532 | 31.11350 | 29994 ft | 426 kts | 278° |
| 2026-04-30 14:53 | 40.27968 | 31.07498 | 30002 ft | 426 kts | 278° |
| 2026-04-30 14:54 | 40.29660 | 30.92410 | 30000 ft | 424 kts | 278° |
| 2026-04-30 14:55 | 40.30506 | 30.84784 | 29506 ft | 429 kts | 278° |
| 2026-04-30 14:55 | 40.30995 | 30.80925 | 29109 ft | 430 kts | 281° |
| 2026-04-30 14:55 | 40.32780 | 30.73447 | 28316 ft | 431 kts | 289° |
| 2026-04-30 14:56 | 40.34984 | 30.66481 | 27500 ft | 430 kts | 292° |
| 2026-04-30 14:56 | 40.37458 | 30.59387 | 26473 ft | 428 kts | 294° |
| 2026-04-30 14:57 | 40.37903 | 30.58160 | 26291 ft | 427 kts | 294° |
| 2026-04-30 14:57 | 40.37781 | 30.58494 | 26340 ft | 428 kts | 294° |
| 2026-04-30 14:58 | 40.38261 | 30.57216 | 26299 ft | 420 kts | 297° |
| 2026-04-30 14:58 | 40.40131 | 30.53790 | 26371 ft | 409 kts | 311° |
| 2026-04-30 14:59 | 40.42257 | 30.51800 | 25853 ft | 421 kts | 328° |
| 2026-04-30 15:00 | 40.47399 | 30.46313 | 24680 ft | 415 kts | 298° |
| 2026-04-30 15:00 | 40.48707 | 30.39093 | 23660 ft | 409 kts | 274° |
| 2026-04-30 15:01 | 40.50024 | 30.31887 | 22616 ft | 405 kts | 290° |
| 2026-04-30 15:01 | 40.50753 | 30.29602 | 22267 ft | 403 kts | 292° |
| 2026-04-30 15:01 | 40.53408 | 30.21834 | 21043 ft | 395 kts | 292° |
| 2026-04-30 15:02 | 40.54473 | 30.18518 | 20516 ft | 391 kts | 291° |
| 2026-04-30 15:02 | 40.55463 | 30.15212 | 19836 ft | 383 kts | 289° |
| 2026-04-30 15:03 | 40.57825 | 30.06321 | 16996 ft | 320 kts | 287° |
| 2026-04-30 15:03 | 40.59044 | 30.01042 | 15192 ft | 316 kts | 285° |
| 2026-04-30 15:04 | 40.60169 | 29.95489 | 13292 ft | 311 kts | 283° |
| 2026-04-30 15:04 | 40.61600 | 29.87443 | 10492 ft | 301 kts | 282° |
| 2026-04-30 15:05 | 40.62839 | 29.79772 | 7748 ft | 258 kts | 281° |
| 2026-04-30 15:06 | 40.63522 | 29.75361 | 6997 ft | 237 kts | 280° |
| 2026-04-30 15:06 | 40.64060 | 29.71803 | 6996 ft | 233 kts | 280° |
| 2026-04-30 15:07 | 40.64661 | 29.67762 | 6995 ft | 221 kts | 280° |
| 2026-04-30 15:07 | 40.65237 | 29.63837 | 6998 ft | 215 kts | 280° |
| 2026-04-30 15:08 | 40.65812 | 29.59972 | 6997 ft | 214 kts | 281° |
| 2026-04-30 15:08 | 40.66819 | 29.54276 | 7004 ft | 213 kts | 278° |
| 2026-04-30 15:09 | 40.67285 | 29.50396 | 6701 ft | 214 kts | 278° |
| 2026-04-30 15:09 | 40.67785 | 29.46536 | 6511 ft | 210 kts | 279° |
| 2026-04-30 15:10 | 40.68301 | 29.42756 | 6500 ft | 210 kts | 279° |
| 2026-04-30 15:11 | 40.69326 | 29.35456 | 6500 ft | 211 kts | 280° |
| 2026-04-30 15:11 | 40.69853 | 29.31735 | 6496 ft | 204 kts | 280° |
| 2026-04-30 15:12 | 40.70624 | 29.26291 | 6499 ft | 200 kts | 279° |
| 2026-04-30 15:13 | 40.71129 | 29.22718 | 6499 ft | 199 kts | 279° |
| 2026-04-30 15:14 | 40.72115 | 29.15719 | 6500 ft | 198 kts | 279° |
| 2026-04-30 15:14 | 40.72864 | 29.10381 | 6500 ft | 198 kts | 279° |
| 2026-04-30 15:16 | 40.74091 | 29.01603 | 6500 ft | 198 kts | 279° |
| 2026-04-30 15:17 | 40.75084 | 28.94460 | 6500 ft | 198 kts | 279° |
| 2026-04-30 15:18 | 40.76299 | 28.85671 | 6500 ft | 198 kts | 279° |
| 2026-04-30 15:19 | 40.77039 | 28.80294 | 6500 ft | 198 kts | 279° |